메인 페이지
METAR-TAF:

METAR-TAF

공항 :

Strother Field

Winfield / 알칸사스 시, 캔자스, 미국

위도: 37-10-05N, 경도: 097-02-13W, 고도: 353m

현재 날씨관측

예보는 25분 전, 00:54시(UTC)에 발표되었습니다.
동남동7kt
온도 20°C
습도 60%
기압 1001 hPa
시정: 16.1km
고도 8000ft 상공 구름 조금
고도 10000ft 상공 구름 조금
고도 12000ft 상공 구름 보통

METAR: KWLD 210054Z AUTO 12007KT 10SM FEW080 FEW100 SCT120 20/12 A2957 RMK AO2 LTG DSNT NE AND E SLP008 T02000117

시각: 20:19 (01:19 UTC)


TAF: 누락

4,000개 이상의 공항 관측 자료 및 예보 (METAR 및 TAF 보고).

지도상에서 검색 가능한 기상관측소가 노란 점과 빨간 점으로 표시되어 있습니다.

기상관측소 명을 보려면 표시 위로 마우스를 이동하세요.

날씨 관측과 예보를 보려면 클릭하세요.

지도 변경 : 확대하려면 엑스 표시가 있는 녹색 버튼, 축소하려면 빼기 표시가 있는 녹색 버튼, 다음 페이지의 지도를 보려면 녹색 화살표를 클릭하세요.


METAR-TAF: